DAL10 KMSP-EGLL
Flight info
| Callsign | DAL10 |
|---|---|
| Flight time | N/A |
| Altitude | 35000 |
| Route | WLSTN7 WLSTN DCT SSM DCT YSB DCT ANCER N649B RIKAL/M081F380 DCT 53N050W 55N040W 56N030W 56N020W DCT RESNO DCT NETKI/N0475F390 DCT REVNU DCT BOFUM Q37 MALUD Q38 NUGRA |
| Aircraft | A339/H-SADE1E2E3GHIJ3J5M1P2RWXY/LB2D1 |
Departure
| Time | 2026-05-08 06:54 |
|---|---|
| Airport | Minneapolis–Saint Paul International Airport / Wold–Chamberlain Field (KMSP) |
Arrival
| Time | N/A |
|---|---|
| Airport | London Heathrow Airport (EGLL) |
| Time | Latitude | Longitude | Altitude | Speed | Heading |
|---|---|---|---|---|---|
| 2026-05-08 05:33 | 44.88331 | -93.21634 | 855 ft | 0 kts | 54° |
| 2026-05-08 06:40 | 44.88325 | -93.21646 | 855 ft | 2 kts | 54° |
| 2026-05-08 06:40 | 44.88316 | -93.21663 | 855 ft | 2 kts | 54° |
| 2026-05-08 06:40 | 44.88307 | -93.21680 | 855 ft | 2 kts | 54° |
| 2026-05-08 06:41 | 44.88299 | -93.21697 | 855 ft | 2 kts | 54° |
| 2026-05-08 06:41 | 44.88290 | -93.21715 | 855 ft | 2 kts | 54° |
| 2026-05-08 06:41 | 44.88281 | -93.21732 | 855 ft | 2 kts | 65° |
| 2026-05-08 06:41 | 44.88277 | -93.21753 | 855 ft | 2 kts | 94° |
| 2026-05-08 06:42 | 44.88281 | -93.21773 | 855 ft | 1 kts | 117° |
| 2026-05-08 06:42 | 44.88284 | -93.21780 | 855 ft | 1 kts | 122° |
| 2026-05-08 06:42 | 44.88284 | -93.21781 | 855 ft | 0 kts | 122° |
| 2026-05-08 06:47 | 44.88283 | -93.21778 | 855 ft | 1 kts | 122° |
| 2026-05-08 06:47 | 44.88268 | -93.21744 | 855 ft | 5 kts | 121° |
| 2026-05-08 06:48 | 44.88250 | -93.21702 | 855 ft | 6 kts | 120° |
| 2026-05-08 06:48 | 44.88224 | -93.21639 | 855 ft | 8 kts | 120° |
| 2026-05-08 06:48 | 44.88192 | -93.21564 | 855 ft | 9 kts | 121° |
| 2026-05-08 06:48 | 44.88146 | -93.21495 | 855 ft | 10 kts | 149° |
| 2026-05-08 06:49 | 44.88083 | -93.21442 | 855 ft | 10 kts | 139° |
| 2026-05-08 06:49 | 44.88028 | -93.21363 | 855 ft | 11 kts | 133° |
| 2026-05-08 06:49 | 44.87979 | -93.21270 | 855 ft | 12 kts | 122° |
| 2026-05-08 06:49 | 44.87934 | -93.21168 | 855 ft | 12 kts | 122° |
| 2026-05-08 06:50 | 44.87889 | -93.21059 | 855 ft | 13 kts | 120° |
| 2026-05-08 06:50 | 44.87841 | -93.20946 | 855 ft | 13 kts | 123° |
| 2026-05-08 06:50 | 44.87789 | -93.20832 | 855 ft | 13 kts | 122° |
| 2026-05-08 06:50 | 44.87738 | -93.20715 | 855 ft | 14 kts | 122° |
| 2026-05-08 06:51 | 44.87688 | -93.20597 | 855 ft | 14 kts | 121° |
| 2026-05-08 06:51 | 44.87636 | -93.20480 | 855 ft | 14 kts | 122° |
| 2026-05-08 06:51 | 44.87584 | -93.20358 | 855 ft | 14 kts | 121° |
| 2026-05-08 06:51 | 44.87532 | -93.20238 | 855 ft | 14 kts | 122° |
| 2026-05-08 06:52 | 44.87485 | -93.20129 | 855 ft | 5 kts | 122° |
| 2026-05-08 06:52 | 44.87460 | -93.20087 | 855 ft | 5 kts | 155° |
| 2026-05-08 06:52 | 44.87417 | -93.20090 | 855 ft | 7 kts | 199° |
| 2026-05-08 06:52 | 44.87374 | -93.20123 | 855 ft | 4 kts | 215° |
| 2026-05-08 06:53 | 44.87368 | -93.20153 | 855 ft | 4 kts | 277° |
| 2026-05-08 06:53 | 44.87380 | -93.20190 | 855 ft | 0 kts | 304° |
| 2026-05-08 06:53 | 44.87380 | -93.20191 | 855 ft | 1 kts | 304° |
| 2026-05-08 06:53 | 44.87481 | -93.20413 | 855 ft | 60 kts | 299° |
| 2026-05-08 06:54 | 44.87806 | -93.21179 | 855 ft | 121 kts | 301° |
| 2026-05-08 06:54 | 44.88340 | -93.22407 | 858 ft | 171 kts | 300° |
| 2026-05-08 06:54 | 44.88992 | -93.23907 | 1310 ft | 180 kts | 301° |
| 2026-05-08 06:54 | 44.89655 | -93.25384 | 2021 ft | 178 kts | 301° |
| 2026-05-08 06:55 | 44.90459 | -93.26699 | 2544 ft | 183 kts | 316° |
| 2026-05-08 06:55 | 44.91438 | -93.27928 | 2868 ft | 194 kts | 317° |
| 2026-05-08 06:55 | 44.92478 | -93.29202 | 3157 ft | 208 kts | 317° |
| 2026-05-08 06:55 | 44.93544 | -93.30538 | 3436 ft | 223 kts | 317° |
| 2026-05-08 06:56 | 44.94733 | -93.32041 | 3811 ft | 235 kts | 316° |
| 2026-05-08 06:56 | 44.95984 | -93.33580 | 4173 ft | 248 kts | 324° |
| 2026-05-08 06:56 | 44.97669 | -93.34369 | 4546 ft | 265 kts | 359° |
| 2026-05-08 06:56 | 44.99451 | -93.33669 | 5119 ft | 276 kts | 31° |
| 2026-05-08 06:57 | 45.00742 | -93.31685 | 5749 ft | 283 kts | 62° |
| 2026-05-08 06:57 | 45.01533 | -93.29113 | 6332 ft | 287 kts | 66° |
| 2026-05-08 06:57 | 45.02296 | -93.26507 | 6905 ft | 291 kts | 65° |
| 2026-05-08 06:57 | 45.03064 | -93.23839 | 7498 ft | 293 kts | 63° |
| 2026-05-08 06:58 | 45.03914 | -93.21244 | 8056 ft | 296 kts | 60° |
| 2026-05-08 06:58 | 45.04841 | -93.18667 | 8715 ft | 293 kts | 56° |
| 2026-05-08 06:58 | 45.05813 | -93.16174 | 9359 ft | 293 kts | 55° |
| 2026-05-08 06:58 | 45.06758 | -93.13768 | 9946 ft | 294 kts | 54° |
| 2026-05-08 06:59 | 45.07742 | -93.11248 | 10432 ft | 299 kts | 54° |
| 2026-05-08 06:59 | 45.08771 | -93.08606 | 10687 ft | 313 kts | 55° |
| 2026-05-08 06:59 | 45.09840 | -93.05836 | 10941 ft | 327 kts | 55° |
| 2026-05-08 06:59 | 45.10940 | -93.02965 | 11191 ft | 341 kts | 56° |
| 2026-05-08 07:00 | 45.11973 | -93.00253 | 11416 ft | 354 kts | 56° |
| 2026-05-08 07:00 | 45.13092 | -92.97303 | 11646 ft | 367 kts | 56° |
| 2026-05-08 07:00 | 45.14320 | -92.94058 | 11900 ft | 380 kts | 56° |
| 2026-05-08 07:00 | 45.15586 | -92.90702 | 12251 ft | 390 kts | 57° |
| 2026-05-08 07:01 | 45.16852 | -92.87341 | 12765 ft | 394 kts | 57° |
| 2026-05-08 07:01 | 45.18160 | -92.83858 | 13308 ft | 398 kts | 57° |
| 2026-05-08 07:01 | 45.19457 | -92.80404 | 13867 ft | 402 kts | 57° |
| 2026-05-08 07:01 | 45.20770 | -92.76906 | 14380 ft | 406 kts | 57° |
| 2026-05-08 07:02 | 45.22102 | -92.73354 | 14892 ft | 410 kts | 57° |
| 2026-05-08 07:02 | 45.23435 | -92.69793 | 15389 ft | 414 kts | 57° |
| 2026-05-08 07:02 | 45.24647 | -92.66090 | 15879 ft | 422 kts | 63° |
| 2026-05-08 07:02 | 45.25593 | -92.62147 | 16375 ft | 429 kts | 69° |
| 2026-05-08 07:03 | 45.26278 | -92.57999 | 16872 ft | 435 kts | 73° |
| 2026-05-08 07:03 | 45.26878 | -92.53751 | 17356 ft | 439 kts | 74° |
| 2026-05-08 07:03 | 45.27454 | -92.49523 | 17825 ft | 442 kts | 74° |
| 2026-05-08 07:03 | 45.28043 | -92.45228 | 18276 ft | 446 kts | 73° |
| 2026-05-08 07:04 | 45.28647 | -92.40890 | 18735 ft | 449 kts | 73° |
| 2026-05-08 07:04 | 45.29259 | -92.36529 | 19216 ft | 453 kts | 73° |
| 2026-05-08 07:04 | 45.29871 | -92.32177 | 19670 ft | 456 kts | 74° |
| 2026-05-08 07:04 | 45.30496 | -92.27726 | 20122 ft | 459 kts | 74° |
| 2026-05-08 07:05 | 45.31101 | -92.23420 | 20550 ft | 461 kts | 74° |
| 2026-05-08 07:05 | 45.31724 | -92.18971 | 20979 ft | 464 kts | 74° |
| 2026-05-08 07:05 | 45.32353 | -92.14462 | 21413 ft | 467 kts | 74° |
| 2026-05-08 07:05 | 45.32983 | -92.09925 | 21818 ft | 470 kts | 74° |
| 2026-05-08 07:06 | 45.33615 | -92.05351 | 22216 ft | 472 kts | 74° |
| 2026-05-08 07:06 | 45.34246 | -92.00759 | 22645 ft | 475 kts | 74° |
| 2026-05-08 07:06 | 45.34878 | -91.96153 | 23020 ft | 477 kts | 74° |
| 2026-05-08 07:06 | 45.35510 | -91.91540 | 23380 ft | 480 kts | 74° |
| 2026-05-08 07:07 | 45.36142 | -91.86916 | 23737 ft | 483 kts | 74° |
| 2026-05-08 07:07 | 45.36780 | -91.82214 | 24075 ft | 485 kts | 74° |
| 2026-05-08 07:07 | 45.37424 | -91.77472 | 24406 ft | 488 kts | 74° |
| 2026-05-08 07:07 | 45.38055 | -91.72793 | 24719 ft | 491 kts | 74° |
| 2026-05-08 07:08 | 45.38702 | -91.67990 | 25049 ft | 493 kts | 74° |
| 2026-05-08 07:08 | 45.39343 | -91.63210 | 25365 ft | 495 kts | 74° |
| 2026-05-08 07:08 | 45.39984 | -91.58411 | 25688 ft | 497 kts | 74° |
| 2026-05-08 07:08 | 45.40625 | -91.53601 | 25995 ft | 500 kts | 74° |
| 2026-05-08 07:09 | 45.41274 | -91.48705 | 26291 ft | 502 kts | 74° |
| 2026-05-08 07:09 | 45.41917 | -91.43845 | 26578 ft | 505 kts | 74° |
| 2026-05-08 07:09 | 45.42560 | -91.38966 | 26877 ft | 507 kts | 74° |
| 2026-05-08 07:09 | 45.43208 | -91.34030 | 27187 ft | 508 kts | 75° |
| 2026-05-08 07:10 | 45.43857 | -91.29065 | 27554 ft | 508 kts | 75° |
| 2026-05-08 07:10 | 45.44499 | -91.24139 | 27946 ft | 507 kts | 75° |
| 2026-05-08 07:10 | 45.45142 | -91.19187 | 28323 ft | 506 kts | 75° |
| 2026-05-08 07:10 | 45.45774 | -91.14290 | 28677 ft | 506 kts | 75° |
| 2026-05-08 07:11 | 45.46402 | -91.09396 | 29030 ft | 506 kts | 75° |
| 2026-05-08 07:11 | 45.47038 | -91.04453 | 29382 ft | 505 kts | 75° |
| 2026-05-08 07:11 | 45.47739 | -90.99615 | 29724 ft | 502 kts | 72° |
| 2026-05-08 07:11 | 45.48538 | -90.94855 | 30051 ft | 502 kts | 71° |
| 2026-05-08 07:12 | 45.49366 | -90.90041 | 30371 ft | 501 kts | 71° |
| 2026-05-08 07:12 | 45.50192 | -90.85243 | 30713 ft | 500 kts | 71° |
| 2026-05-08 07:12 | 45.51025 | -90.80400 | 31056 ft | 499 kts | 71° |
| 2026-05-08 07:12 | 45.51838 | -90.75640 | 31358 ft | 499 kts | 71° |
| 2026-05-08 07:13 | 45.52660 | -90.70813 | 31639 ft | 499 kts | 71° |
| 2026-05-08 07:13 | 45.53467 | -90.66042 | 31923 ft | 499 kts | 71° |
| 2026-05-08 07:13 | 45.54274 | -90.61255 | 32210 ft | 499 kts | 71° |
| 2026-05-08 07:13 | 45.55082 | -90.56442 | 32479 ft | 499 kts | 71° |
| 2026-05-08 07:14 | 45.55880 | -90.51680 | 32751 ft | 499 kts | 71° |
| 2026-05-08 07:14 | 45.56675 | -90.46912 | 33015 ft | 499 kts | 71° |
| 2026-05-08 07:14 | 45.57479 | -90.42083 | 33250 ft | 499 kts | 71° |
| 2026-05-08 07:14 | 45.58277 | -90.37274 | 33455 ft | 500 kts | 71° |
| 2026-05-08 07:15 | 45.59072 | -90.32481 | 33648 ft | 501 kts | 71° |
| 2026-05-08 07:15 | 45.59868 | -90.27662 | 33806 ft | 503 kts | 72° |
| 2026-05-08 07:15 | 45.60669 | -90.22787 | 33994 ft | 503 kts | 72° |
| 2026-05-08 07:15 | 45.61483 | -90.17832 | 34179 ft | 504 kts | 72° |
| 2026-05-08 07:16 | 45.62288 | -90.12910 | 34334 ft | 505 kts | 71° |
| 2026-05-08 07:16 | 45.63089 | -90.07984 | 34499 ft | 505 kts | 71° |
| 2026-05-08 07:16 | 45.63889 | -90.03069 | 34646 ft | 506 kts | 71° |
| 2026-05-08 07:16 | 45.64685 | -89.98161 | 34754 ft | 507 kts | 71° |
| 2026-05-08 07:17 | 45.66268 | -89.88369 | 34843 ft | 508 kts | 72° |
| 2026-05-08 07:17 | 45.67844 | -89.78544 | 34844 ft | 508 kts | 72° |
| 2026-05-08 07:18 | 45.69403 | -89.68771 | 34851 ft | 509 kts | 72° |
| 2026-05-08 07:18 | 45.70968 | -89.58903 | 34849 ft | 509 kts | 71° |
| 2026-05-08 07:19 | 45.72521 | -89.49048 | 34848 ft | 510 kts | 72° |
| 2026-05-08 07:19 | 45.74063 | -89.39215 | 34850 ft | 510 kts | 72° |
| 2026-05-08 07:20 | 45.75605 | -89.29324 | 34855 ft | 510 kts | 72° |
| 2026-05-08 07:20 | 45.77111 | -89.19584 | 34851 ft | 509 kts | 72° |
| 2026-05-08 07:21 | 45.78639 | -89.09661 | 34847 ft | 509 kts | 72° |
| 2026-05-08 07:21 | 45.80139 | -88.99846 | 34838 ft | 508 kts | 72° |
| 2026-05-08 07:22 | 45.81649 | -88.89916 | 34829 ft | 509 kts | 72° |
| 2026-05-08 07:22 | 45.83134 | -88.80088 | 34834 ft | 509 kts | 72° |
| 2026-05-08 07:23 | 45.84626 | -88.70149 | 34850 ft | 509 kts | 72° |
| 2026-05-08 07:23 | 45.86099 | -88.60276 | 34846 ft | 510 kts | 72° |
| 2026-05-08 07:24 | 45.87565 | -88.50379 | 34845 ft | 509 kts | 72° |
| 2026-05-08 07:24 | 45.89029 | -88.40439 | 34852 ft | 510 kts | 72° |
| 2026-05-08 07:25 | 45.90491 | -88.30466 | 34848 ft | 511 kts | 73° |
| 2026-05-08 07:26 | 45.92566 | -88.16166 | 34858 ft | 511 kts | 73° |
| 2026-05-08 07:26 | 45.94010 | -88.06148 | 34864 ft | 511 kts | 73° |
| 2026-05-08 07:27 | 45.95433 | -87.96196 | 34862 ft | 511 kts | 73° |
| 2026-05-08 07:27 | 45.96840 | -87.86290 | 34853 ft | 510 kts | 73° |
| 2026-05-08 07:28 | 45.98254 | -87.76286 | 34855 ft | 510 kts | 73° |
| 2026-05-08 07:28 | 45.99651 | -87.66341 | 34858 ft | 511 kts | 73° |
| 2026-05-08 07:29 | 46.01041 | -87.56355 | 34844 ft | 511 kts | 73° |
| 2026-05-08 07:29 | 46.02417 | -87.46418 | 34829 ft | 510 kts | 73° |
| 2026-05-08 07:30 | 46.03791 | -87.36415 | 34856 ft | 510 kts | 73° |
| 2026-05-08 07:30 | 46.05158 | -87.26417 | 34833 ft | 511 kts | 74° |
| 2026-05-08 07:31 | 46.06519 | -87.16374 | 34837 ft | 511 kts | 74° |
| 2026-05-08 07:31 | 46.07440 | -87.09529 | 34845 ft | 511 kts | 74° |